CheckWX is a tool to help pilots better visualize weather data.  It is not intended as a substitute for an official pre-flight weather briefing.

16:06:39 UTC

KIAB METAR
Mc Connell AFB Airport
Wichita, Kansas, USA
Current

11 mins ago

KIAB 221556Z AUTO 23007KT 10SM FEW047 FEW060 FEW075 BKN100 23/20 A3000 RMK AO2 RAE04DZB04E05DZB16E26 PRESRR SLP150 P0000 T02250196 $
Observed
Aug-22 @ 15:56 UTC
Wind
  • 230° at 7 KTS
Visibility
10 SM
Flight Rules
VFR
Cloud Levels
  • Few at 4,700' AGL
  • Few at 6,000' AGL
  • Few at 7,500' AGL
  • Broken at 10,000' AGL
Temperature
23°C / 73°F
Dewpoint
20°C / 68°F
Humidity
83%
Altimeter
30" Hg
Pressure
1015.92 hPa
Current Rain
0.01"
Previous

41 mins ago

KIAB 221526Z AUTO 09003KT 10SM FEW060 FEW070 BKN095 BKN110 22/19 A2997 RMK AO2 RAE04DZB04E05DZB16E26 SLP141 $
Observed
Aug-22 @ 15:26 UTC
Wind
  • 090° at 3 KTS
Visibility
10 SM
Flight Rules
VFR
Cloud Levels
  • Few at 6,000' AGL
  • Few at 7,000' AGL
  • Broken at 9,500' AGL
  • Broken at 11,000' AGL
Temperature
22°C / 72°F
Dewpoint
19°C / 66°F
Humidity
83%
Altimeter
29.97" Hg
Pressure
1014.92 hPa
Previous

51 mins ago

KIAB 221516Z AUTO 36003KT 10SM -DZ FEW060 SCT080 BKN100 21/19 A2998 RMK AO2 RAE04DZB04E05DZB16 SLP144 $
Observed
Aug-22 @ 15:16 UTC
Wind
  • 360° at 3 KTS
Visibility
10 SM
Flight Rules
VFR
Conditions
Light Drizzle
Cloud Levels
  • Few at 6,000' AGL
  • Scattered at 8,000' AGL
  • Broken at 10,000' AGL
Temperature
21°C / 70°F
Dewpoint
19°C / 66°F
Humidity
88%
Altimeter
29.98" Hg
Pressure
1015.22 hPa